Time;durP1;ratioP1;P1;durP2;ratioP2;P2;SDS_P1;SDS_P2;PMS_P1;PMS_P2;Temp;Humidity;BMP_temperature;BMP_pressure;BME280_temperature;BME280_humidity;BME280_pressure;Samples;Min_cycle;Max_cycle;Signal;HPM_P1;HPM_P2
2022/05/10 00:01:25;;;;;;;3.55;2.92;;;;;;;;;;7395206;19;20014;-78
2022/05/10 00:03:51;;;;;;;4.55;3.83;;;;;;;;;;7395489;19;20018;-77
2022/05/10 00:06:16;;;;;;;5.47;3.50;;;;;;;;;;7397033;19;20014;-78
2022/05/10 00:08:42;;;;;;;4.15;3.53;;;;;;;;;;7396613;19;19990;-78
2022/05/10 00:11:09;;;;;;;7.55;3.40;;;;;;;;;;7394550;19;20030;-78
2022/05/10 00:13:34;;;;;;;9.70;4.30;;;;;;;;;;7397610;19;20448;-78
2022/05/10 00:16:00;;;;;;;5.15;3.92;;;;;;;;;;7393902;19;20007;-78
2022/05/10 00:18:28;;;;;;;3.30;2.70;;;;;;;;;;7394621;19;20010;-78
2022/05/10 00:20:53;;;;;;;4.40;3.35;;;;;;;;;;7393263;19;20038;-78
2022/05/10 00:23:19;;;;;;;3.20;2.65;;;;;;;;;;7396960;19;20083;-78
2022/05/10 00:25:44;;;;;;;4.65;3.47;;;;;;;;;;7392355;19;20086;-78
2022/05/10 00:28:10;;;;;;;3.90;3.40;;;;;;;;;;7394165;19;20010;-78
2022/05/10 00:30:35;;;;;;;5.22;3.70;;;;;;;;;;7391331;19;20053;-77
2022/05/10 00:33:00;;;;;;;7.15;3.58;;;;;;;;;;7395852;19;20070;-78
2022/05/10 00:35:29;;;;;;;5.75;3.72;;;;;;;;;;7392284;19;20015;-77
2022/05/10 00:37:58;;;;;;;5.80;3.35;;;;;;;;;;7396377;19;20002;-77
2022/05/10 00:40:33;;;;;;;3.60;2.92;;;;;;;;;;7389698;19;20002;-77
2022/05/10 00:43:31;;;;;;;4.80;3.60;;;;;;;;;;7393636;19;20007;-77
2022/05/10 00:46:09;;;;;;;4.63;2.95;;;;;;;;;;7393094;19;20456;-77
2022/05/10 00:48:42;;;;;;;6.63;3.47;;;;;;;;;;7392319;19;20332;-77
2022/05/10 00:51:45;;;;;;;4.55;2.97;;;;;;;;;;7392967;19;20010;-77
2022/05/10 00:54:19;;;;;;;4.38;3.60;;;;;;;;;;7394772;19;20003;-78
2022/05/10 00:56:54;;;;;;;3.95;3.45;;;;;;;;;;7395028;19;20036;-77
2022/05/10 00:59:28;;;;;;;4.25;3.40;;;;;;;;;;7394919;19;20442;-77
2022/05/10 01:02:01;;;;;;;4.50;3.60;;;;;;;;;;7392200;19;20006;-77
2022/05/10 01:04:28;;;;;;;5.07;3.60;;;;;;;;;;7393037;19;20010;-77
2022/05/10 01:07:11;;;;;;;5.80;3.60;;;;;;;;;;7390161;19;20011;-78
2022/05/10 01:09:54;;;;;;;4.43;3.40;;;;;;;;;;7393330;19;20074;-77
2022/05/10 01:12:30;;;;;;;4.68;3.50;;;;;;;;;;7391005;19;20010;-77
2022/05/10 01:15:20;;;;;;;6.88;2.90;;;;;;;;;;7392494;19;20031;-77
2022/05/10 01:17:46;;;;;;;4.00;3.17;;;;;;;;;;7392577;19;20077;-78
2022/05/10 01:20:27;;;;;;;4.90;3.58;;;;;;;;;;7391915;19;20034;-77
2022/05/10 01:22:58;;;;;;;6.07;3.78;;;;;;;;;;7391894;19;20017;-78
2022/05/10 01:25:51;;;;;;;3.67;3.00;;;;;;;;;;7390682;19;20006;-78
2022/05/10 01:28:23;;;;;;;4.38;3.03;;;;;;;;;;7390819;19;20376;-78
2022/05/10 01:30:49;;;;;;;4.68;3.60;;;;;;;;;;7389164;19;20007;-78
2022/05/10 01:33:31;;;;;;;5.10;3.08;;;;;;;;;;7393594;19;20014;-78
2022/05/10 01:36:15;;;;;;;4.40;3.20;;;;;;;;;;7389792;19;20428;-77
2022/05/10 01:39:02;;;;;;;4.93;3.28;;;;;;;;;;7390695;19;20539;-78
2022/05/10 01:41:50;;;;;;;4.90;3.53;;;;;;;;;;7387467;19;20095;-77
2022/05/10 01:44:55;;;;;;;4.35;2.70;;;;;;;;;;7390512;19;20031;-78
2022/05/10 01:47:31;;;;;;;4.13;3.13;;;;;;;;;;7393203;19;20025;-77
2022/05/10 01:50:06;;;;;;;4.55;3.65;;;;;;;;;;7391581;19;20503;-77
2022/05/10 01:52:40;;;;;;;5.05;3.58;;;;;;;;;;7389483;19;20022;-77
2022/05/10 01:55:12;;;;;;;4.43;3.27;;;;;;;;;;7390788;19;20014;-77
2022/05/10 01:57:40;;;;;;;4.63;3.50;;;;;;;;;;7389861;19;20015;-77
2022/05/10 02:00:20;;;;;;;3.40;2.92;;;;;;;;;;7389258;19;20019;-78
2022/05/10 02:03:03;;;;;;;3.80;2.90;;;;;;;;;;7390611;19;20032;-78
2022/05/10 02:05:44;;;;;;;4.80;3.15;;;;;;;;;;7391719;19;20402;-78
2022/05/10 02:08:44;;;;;;;5.75;3.35;;;;;;;;;;7389350;19;20126;-78
2022/05/10 02:11:12;;;;;;;5.57;3.17;;;;;;;;;;7387765;19;20011;-78
2022/05/10 02:13:44;;;;;;;6.20;3.42;;;;;;;;;;7391588;19;20345;-77
2022/05/10 02:16:17;;;;;;;3.88;3.08;;;;;;;;;;7389894;19;20010;-77
2022/05/10 02:18:54;;;;;;;4.80;3.78;;;;;;;;;;7391727;19;20006;-77
2022/05/10 02:21:44;;;;;;;5.55;3.63;;;;;;;;;;7389221;19;20007;-78
2022/05/10 02:24:16;;;;;;;4.40;3.50;;;;;;;;;;7391791;19;20461;-78
2022/05/10 02:26:51;;;;;;;3.75;3.35;;;;;;;;;;7383762;19;20656;-78
2022/05/10 02:29:26;;;;;;;4.43;3.75;;;;;;;;;;7392702;19;20003;-78
2022/05/10 02:35:04;;;;;;;3.22;2.80;;;;;;;;;;7389320;19;20535;-77
2022/05/10 02:37:30;;;;;;;4.70;3.30;;;;;;;;;;7389673;19;20478;-78
2022/05/10 02:39:55;;;;;;;4.82;3.47;;;;;;;;;;7390232;19;20147;-78
2022/05/10 02:42:22;;;;;;;4.80;3.58;;;;;;;;;;7389553;19;20028;-78
2022/05/10 02:44:50;;;;;;;4.95;3.60;;;;;;;;;;7394530;19;20002;-78
2022/05/10 02:47:27;;;;;;;10.13;3.55;;;;;;;;;;7397532;19;20018;-78
2022/05/10 02:49:52;;;;;;;5.70;3.90;;;;;;;;;;7393093;19;20031;-77
2022/05/10 02:52:17;;;;;;;4.13;3.65;;;;;;;;;;7390148;19;20006;-77
2022/05/10 02:54:43;;;;;;;5.03;3.67;;;;;;;;;;7387974;19;20030;-77
2022/05/10 02:57:08;;;;;;;5.15;3.55;;;;;;;;;;7391093;19;20010;-79
2022/05/10 02:59:38;;;;;;;6.07;4.43;;;;;;;;;;7387752;19;20003;-77
2022/05/10 03:02:15;;;;;;;6.60;4.38;;;;;;;;;;7387894;19;20011;-80
2022/05/10 03:04:49;;;;;;;8.98;4.50;;;;;;;;;;7391936;19;20003;-77
2022/05/10 03:07:15;;;;;;;7.20;4.50;;;;;;;;;;7395985;19;20014;-80
2022/05/10 03:09:40;;;;;;;8.38;4.20;;;;;;;;;;7395850;19;20178;-77
2022/05/10 03:12:06;;;;;;;6.65;4.45;;;;;;;;;;7395833;19;20454;-77
2022/05/10 03:14:32;;;;;;;5.00;4.22;;;;;;;;;;7396303;19;20027;-80
2022/05/10 03:16:58;;;;;;;9.20;3.88;;;;;;;;;;7396070;19;20010;-77
2022/05/10 03:19:23;;;;;;;4.88;3.50;;;;;;;;;;7393957;19;20010;-77
2022/05/10 03:21:48;;;;;;;6.35;3.88;;;;;;;;;;7397459;19;20010;-76
2022/05/10 03:24:14;;;;;;;4.18;3.72;;;;;;;;;;7392798;19;20025;-78
2022/05/10 03:26:46;;;;;;;6.95;4.03;;;;;;;;;;7395901;19;20130;-77
2022/05/10 03:29:11;;;;;;;5.43;4.20;;;;;;;;;;7393306;19;20370;-80
2022/05/10 03:31:36;;;;;;;4.60;3.70;;;;;;;;;;7395033;19;20398;-77
2022/05/10 03:36:46;;;;;;;5.78;4.50;;;;;;;;;;7398624;19;20027;-80
2022/05/10 03:39:11;;;;;;;4.53;4.03;;;;;;;;;;7388789;19;20002;-80
2022/05/10 03:41:36;;;;;;;5.72;4.63;;;;;;;;;;7394667;19;20484;-77
2022/05/10 03:44:02;;;;;;;8.00;4.40;;;;;;;;;;7392815;19;20131;-80
2022/05/10 03:46:27;;;;;;;4.78;4.15;;;;;;;;;;7405220;19;20006;-78
2022/05/10 03:48:53;;;;;;;5.25;4.00;;;;;;;;;;7398519;19;20015;-78
2022/05/10 03:51:18;;;;;;;5.40;4.30;;;;;;;;;;7408747;19;20062;-77
2022/05/10 03:53:43;;;;;;;6.80;5.07;;;;;;;;;;7414534;19;20030;-77
2022/05/10 03:56:09;;;;;;;5.82;4.40;;;;;;;;;;7421464;19;20010;-77
2022/05/10 03:58:34;;;;;;;4.57;3.30;;;;;;;;;;7391840;19;20013;-78
2022/05/10 04:01:00;;;;;;;4.38;2.92;;;;;;;;;;7398333;19;20054;-80
2022/05/10 04:03:25;;;;;;;3.75;3.20;;;;;;;;;;7391719;19;20026;-77
2022/05/10 04:05:50;;;;;;;8.90;3.45;;;;;;;;;;7395662;19;20034;-79
2022/05/10 04:08:16;;;;;;;5.05;4.07;;;;;;;;;;7393622;19;20010;-79
2022/05/10 04:10:42;;;;;;;4.88;3.90;;;;;;;;;;7397309;19;20050;-77
2022/05/10 04:13:09;;;;;;;5.35;3.70;;;;;;;;;;7397475;19;20119;-80
2022/05/10 04:15:34;;;;;;;3.25;2.95;;;;;;;;;;7398133;19;20014;-78
2022/05/10 04:17:59;;;;;;;4.85;3.22;;;;;;;;;;7390868;19;20093;-77
2022/05/10 04:20:25;;;;;;;4.07;2.88;;;;;;;;;;7395729;19;20009;-78
2022/05/10 04:22:50;;;;;;;4.82;3.97;;;;;;;;;;7394103;19;20007;-80
2022/05/10 04:25:23;;;;;;;4.75;3.50;;;;;;;;;;7396257;19;20316;-78
2022/05/10 04:27:50;;;;;;;6.43;3.78;;;;;;;;;;7394748;19;20334;-78
2022/05/10 04:30:16;;;;;;;5.22;3.55;;;;;;;;;;7395644;19;19998;-78
2022/05/10 04:32:41;;;;;;;6.03;3.83;;;;;;;;;;7395887;19;20078;-77
2022/05/10 04:35:07;;;;;;;4.60;3.45;;;;;;;;;;7394630;19;20016;-78
2022/05/10 04:37:33;;;;;;;4.75;3.55;;;;;;;;;;7394532;19;20361;-80
2022/05/10 04:42:44;;;;;;;4.68;3.47;;;;;;;;;;7396405;19;20021;-78
2022/05/10 04:45:10;;;;;;;4.18;3.65;;;;;;;;;;7396512;19;20551;-78
2022/05/10 04:47:35;;;;;;;5.18;3.85;;;;;;;;;;7393090;19;20014;-81
2022/05/10 04:50:01;;;;;;;5.38;4.10;;;;;;;;;;7396343;19;20387;-78
2022/05/10 04:52:26;;;;;;;4.75;3.17;;;;;;;;;;7391463;19;20017;-78
2022/05/10 04:54:52;;;;;;;6.40;3.88;;;;;;;;;;7395694;19;20003;-81
2022/05/10 04:57:17;;;;;;;3.90;3.47;;;;;;;;;;7396183;19;20014;-81
2022/05/10 04:59:43;;;;;;;4.60;3.63;;;;;;;;;;7395929;19;20006;-79
2022/05/10 05:02:08;;;;;;;4.47;3.63;;;;;;;;;;7390562;19;20021;-80
2022/05/10 05:04:33;;;;;;;6.57;3.75;;;;;;;;;;7391288;19;20010;-80
2022/05/10 05:06:58;;;;;;;4.80;3.90;;;;;;;;;;7394458;19;20038;-81
2022/05/10 05:09:24;;;;;;;7.75;5.03;;;;;;;;;;7387547;19;20685;-78
2022/05/10 05:11:49;;;;;;;4.90;4.35;;;;;;;;;;7391418;19;20027;-79
2022/05/10 05:14:14;;;;;;;8.07;4.97;;;;;;;;;;7392857;19;20006;-78
2022/05/10 05:16:39;;;;;;;7.78;5.15;;;;;;;;;;7393159;19;20014;-79
2022/05/10 05:19:05;;;;;;;5.63;4.60;;;;;;;;;;7392015;19;20010;-79
2022/05/10 05:21:30;;;;;;;5.65;4.50;;;;;;;;;;7389555;19;20031;-76
2022/05/10 05:23:56;;;;;;;4.65;3.25;;;;;;;;;;7392748;19;20011;-79
2022/05/10 05:26:22;;;;;;;5.57;4.10;;;;;;;;;;7389181;19;20007;-77
2022/05/10 05:28:47;;;;;;;5.13;3.95;;;;;;;;;;7393558;19;20010;-77
2022/05/10 05:31:14;;;;;;;4.65;3.65;;;;;;;;;;7394654;19;20015;-80
2022/05/10 05:33:39;;;;;;;6.65;4.32;;;;;;;;;;7393238;19;20010;-76
2022/05/10 05:36:05;;;;;;;4.90;4.05;;;;;;;;;;7393364;19;20024;-77
2022/05/10 05:38:30;;;;;;;6.78;4.63;;;;;;;;;;7392833;19;20006;-79
2022/05/10 05:40:55;;;;;;;5.47;4.15;;;;;;;;;;7393187;19;20356;-79
2022/05/10 05:43:21;;;;;;;6.65;5.18;;;;;;;;;;7395292;19;20017;-77
2022/05/10 05:45:49;;;;;;;6.32;4.72;;;;;;;;;;7392567;19;20010;-79
2022/05/10 05:48:14;;;;;;;6.07;4.68;;;;;;;;;;7392142;19;20007;-79
2022/05/10 05:50:40;;;;;;;5.40;3.90;;;;;;;;;;7391559;19;20031;-78
2022/05/10 05:53:05;;;;;;;6.88;5.05;;;;;;;;;;7395444;19;20472;-79
2022/05/10 05:55:30;;;;;;;6.90;5.30;;;;;;;;;;7393099;19;20002;-79
2022/05/10 05:57:57;;;;;;;7.75;6.03;;;;;;;;;;7390779;19;20110;-78
2022/05/10 06:00:25;;;;;;;8.30;6.35;;;;;;;;;;7393876;19;20006;-79
2022/05/10 06:02:51;;;;;;;9.15;6.53;;;;;;;;;;7388221;19;20006;-80
2022/05/10 06:05:18;;;;;;;8.70;6.47;;;;;;;;;;7391794;19;20014;-79
2022/05/10 06:07:44;;;;;;;12.27;6.30;;;;;;;;;;7388193;19;20013;-79
2022/05/10 06:10:11;;;;;;;8.05;5.75;;;;;;;;;;7386354;19;20087;-79
2022/05/10 06:12:37;;;;;;;11.38;7.82;;;;;;;;;;7391251;19;20002;-79
2022/05/10 06:15:08;;;;;;;8.82;6.63;;;;;;;;;;7392346;19;20471;-79
2022/05/10 06:17:35;;;;;;;9.63;7.47;;;;;;;;;;7390652;19;20371;-80
2022/05/10 06:20:00;;;;;;;10.43;7.47;;;;;;;;;;7390493;19;20027;-78
2022/05/10 06:22:25;;;;;;;9.10;5.80;;;;;;;;;;7394394;19;20011;-80
2022/05/10 06:24:51;;;;;;;8.50;6.72;;;;;;;;;;7388870;19;20021;-78
2022/05/10 06:27:16;;;;;;;9.55;6.90;;;;;;;;;;7393460;19;20010;-79
2022/05/10 06:29:43;;;;;;;8.63;6.25;;;;;;;;;;7396617;19;20011;-79
2022/05/10 06:32:08;;;;;;;9.98;6.57;;;;;;;;;;7391637;19;20329;-78
2022/05/10 06:34:34;;;;;;;7.43;5.95;;;;;;;;;;7390684;19;20005;-78
2022/05/10 06:36:59;;;;;;;11.38;7.10;;;;;;;;;;7389723;19;20078;-78
2022/05/10 06:39:24;;;;;;;8.57;6.70;;;;;;;;;;7387848;19;20011;-78
2022/05/10 06:41:50;;;;;;;10.05;6.30;;;;;;;;;;7392278;19;20544;-78
2022/05/10 06:44:15;;;;;;;7.53;5.82;;;;;;;;;;7388777;19;20010;-77
2022/05/10 06:46:40;;;;;;;7.97;6.00;;;;;;;;;;7387681;19;20064;-77
2022/05/10 06:49:06;;;;;;;5.38;4.28;;;;;;;;;;7392681;19;20034;-80
2022/05/10 06:51:32;;;;;;;10.45;5.80;;;;;;;;;;7393038;19;20118;-80
2022/05/10 06:53:58;;;;;;;7.93;5.25;;;;;;;;;;7392565;19;20042;-79
2022/05/10 06:56:24;;;;;;;10.88;5.05;;;;;;;;;;7394095;19;20014;-79
2022/05/10 06:58:50;;;;;;;10.75;4.88;;;;;;;;;;7390062;19;20021;-79
2022/05/10 07:01:15;;;;;;;7.93;5.68;;;;;;;;;;7390038;19;20052;-78
2022/05/10 07:03:49;;;;;;;8.98;5.70;;;;;;;;;;7392821;19;20560;-79
2022/05/10 07:06:20;;;;;;;8.57;5.72;;;;;;;;;;7391072;19;20440;-79
2022/05/10 07:08:46;;;;;;;9.38;5.13;;;;;;;;;;7391825;19;20014;-79
2022/05/10 07:11:12;;;;;;;8.02;5.28;;;;;;;;;;7389141;19;20003;-78
2022/05/10 07:13:38;;;;;;;6.90;5.50;;;;;;;;;;7390972;19;20325;-78
2022/05/10 07:16:03;;;;;;;9.07;6.03;;;;;;;;;;7388769;19;20011;-78
2022/05/10 07:18:29;;;;;;;6.63;4.88;;;;;;;;;;7390114;19;20010;-79
2022/05/10 07:20:55;;;;;;;8.40;5.43;;;;;;;;;;7391863;19;20014;-79
2022/05/10 07:23:23;;;;;;;6.57;5.22;;;;;;;;;;7389872;19;20011;-79
2022/05/10 07:25:48;;;;;;;10.65;5.85;;;;;;;;;;7392511;19;20443;-79
2022/05/10 07:28:13;;;;;;;8.45;5.25;;;;;;;;;;7391477;19;20007;-80
2022/05/10 07:30:39;;;;;;;7.60;5.85;;;;;;;;;;7390097;19;20348;-80
2022/05/10 07:33:04;;;;;;;7.65;5.60;;;;;;;;;;7391672;19;20492;-79
2022/05/10 07:38:17;;;;;;;9.57;5.47;;;;;;;;;;7389095;19;20040;-78
2022/05/10 07:40:44;;;;;;;6.95;5.28;;;;;;;;;;7394286;19;20023;-78
2022/05/10 07:43:12;;;;;;;8.52;4.53;;;;;;;;;;7390368;19;20102;-80
2022/05/10 07:45:39;;;;;;;8.77;5.15;;;;;;;;;;7390734;19;20014;-79
2022/05/10 07:48:06;;;;;;;6.45;4.80;;;;;;;;;;7389886;19;20010;-80
2022/05/10 07:50:31;;;;;;;5.82;4.60;;;;;;;;;;7396426;19;20428;-78
2022/05/10 07:52:58;;;;;;;6.18;4.03;;;;;;;;;;7399303;19;20023;-78
2022/05/10 07:55:24;;;;;;;7.28;4.72;;;;;;;;;;7399021;19;20011;-78
2022/05/10 07:57:49;;;;;;;7.18;4.55;;;;;;;;;;7397579;19;20030;-78
2022/05/10 08:00:15;;;;;;;6.22;4.82;;;;;;;;;;7399712;19;20010;-78
2022/05/10 08:02:43;;;;;;;5.80;4.40;;;;;;;;;;7396877;19;20041;-78
2022/05/10 08:05:11;;;;;;;7.22;5.20;;;;;;;;;;7397629;19;20014;-78
2022/05/10 08:07:36;;;;;;;4.80;4.22;;;;;;;;;;7394875;19;20014;-78
2022/05/10 08:10:01;;;;;;;5.47;4.03;;;;;;;;;;7398309;19;20007;-78
2022/05/10 08:12:27;;;;;;;5.65;4.40;;;;;;;;;;7394822;19;20345;-78
2022/05/10 08:14:52;;;;;;;4.55;3.90;;;;;;;;;;7396676;19;20022;-78
2022/05/10 08:17:17;;;;;;;5.40;4.00;;;;;;;;;;7398407;19;20006;-78
2022/05/10 08:19:45;;;;;;;6.05;4.43;;;;;;;;;;7395842;19;20109;-78
2022/05/10 08:22:10;;;;;;;6.55;3.38;;;;;;;;;;7393877;19;20032;-78
2022/05/10 08:24:35;;;;;;;4.50;3.42;;;;;;;;;;7394532;19;20002;-78
2022/05/10 08:27:01;;;;;;;4.43;3.80;;;;;;;;;;7399150;19;20403;-78
2022/05/10 08:29:27;;;;;;;4.70;3.92;;;;;;;;;;7395667;19;20368;-78
2022/05/10 08:31:52;;;;;;;6.07;3.67;;;;;;;;;;7396201;19;20013;-78
2022/05/10 08:34:19;;;;;;;5.10;4.00;;;;;;;;;;7396240;19;20506;-78
2022/05/10 08:36:46;;;;;;;6.13;3.70;;;;;;;;;;7398698;19;20012;-78
2022/05/10 08:39:12;;;;;;;4.50;3.65;;;;;;;;;;7396298;19;20105;-78
2022/05/10 08:41:48;;;;;;;5.60;3.33;;;;;;;;;;7393798;19;20023;-78
2022/05/10 08:44:19;;;;;;;6.13;3.60;;;;;;;;;;7396577;19;20017;-79
2022/05/10 08:46:49;;;;;;;4.28;3.13;;;;;;;;;;7396985;19;20054;-78
2022/05/10 08:49:19;;;;;;;4.60;2.80;;;;;;;;;;7391610;19;20045;-80
2022/05/10 08:51:46;;;;;;;5.40;3.13;;;;;;;;;;7393703;19;20014;-78
2022/05/10 08:54:11;;;;;;;4.93;2.90;;;;;;;;;;7392812;19;20043;-78
2022/05/10 08:56:46;;;;;;;5.88;3.05;;;;;;;;;;7396054;19;20013;-79
2022/05/10 08:59:13;;;;;;;4.43;3.00;;;;;;;;;;7390564;19;20583;-79
2022/05/10 09:01:51;;;;;;;5.78;2.90;;;;;;;;;;7391410;19;20315;-77
2022/05/10 09:04:46;;;;;;;6.03;3.25;;;;;;;;;;7389010;19;20101;-78
2022/05/10 09:07:23;;;;;;;4.53;3.23;;;;;;;;;;7393209;19;20155;-79
2022/05/10 09:10:01;;;;;;;3.72;3.13;;;;;;;;;;7392624;19;20243;-78
2022/05/10 09:12:28;;;;;;;4.72;3.05;;;;;;;;;;7394326;19;20078;-78
2022/05/10 09:15:00;;;;;;;5.70;2.88;;;;;;;;;;7393344;19;20006;-78
2022/05/10 09:17:30;;;;;;;3.90;3.13;;;;;;;;;;7393501;19;20018;-77
2022/05/10 09:19:55;;;;;;;5.38;2.80;;;;;;;;;;7393947;19;20037;-77
2022/05/10 09:22:33;;;;;;;4.50;2.78;;;;;;;;;;7392008;19;20006;-78
2022/05/10 09:24:59;;;;;;;3.63;2.70;;;;;;;;;;7387626;19;20069;-77
2022/05/10 09:27:32;;;;;;;4.00;2.70;;;;;;;;;;7392679;19;20041;-79
2022/05/10 09:29:58;;;;;;;4.57;2.80;;;;;;;;;;7391100;19;20478;-79
2022/05/10 09:35:18;;;;;;;4.90;2.65;;;;;;;;;;7394086;19;20485;-77
2022/05/10 09:38:04;;;;;;;3.45;2.30;;;;;;;;;;7396909;19;20364;-77
2022/05/10 09:40:36;;;;;;;3.13;2.35;;;;;;;;;;7394435;19;20006;-78
2022/05/10 09:43:15;;;;;;;2.13;1.90;;;;;;;;;;7389006;19;20019;-78
2022/05/10 09:45:41;;;;;;;3.10;2.60;;;;;;;;;;7387559;19;20014;-77
2022/05/10 09:48:06;;;;;;;2.78;2.45;;;;;;;;;;7391452;19;20010;-77
2022/05/10 09:50:46;;;;;;;4.93;2.03;;;;;;;;;;7387861;19;20031;-78
2022/05/10 09:53:11;;;;;;;3.08;2.20;;;;;;;;;;7395207;19;20327;-77
2022/05/10 09:55:37;;;;;;;4.72;2.05;;;;;;;;;;7395234;19;20010;-77
2022/05/10 09:58:15;;;;;;;2.63;1.90;;;;;;;;;;7393541;19;20021;-77
2022/05/10 10:00:55;;;;;;;2.63;1.95;;;;;;;;;;7390750;19;20010;-78
2022/05/10 10:03:28;;;;;;;2.20;1.95;;;;;;;;;;7387213;19;20317;-77
2022/05/10 10:05:56;;;;;;;4.10;2.40;;;;;;;;;;7385887;19;20014;-78
2022/05/10 10:08:38;;;;;;;2.20;2.00;;;;;;;;;;7389264;19;20003;-78
2022/05/10 10:11:10;;;;;;;2.75;1.92;;;;;;;;;;7392131;19;20015;-78
2022/05/10 10:13:40;;;;;;;3.10;2.10;;;;;;;;;;7393048;19;20182;-78
2022/05/10 10:16:18;;;;;;;2.40;1.88;;;;;;;;;;7387126;19;20003;-78
2022/05/10 10:18:52;;;;;;;2.47;2.03;;;;;;;;;;7386966;19;20014;-78
2022/05/10 10:21:29;;;;;;;3.47;1.97;;;;;;;;;;7388285;19;20010;-78
2022/05/10 10:23:58;;;;;;;5.05;1.92;;;;;;;;;;7386504;19;20074;-78
2022/05/10 10:26:35;;;;;;;2.42;2.20;;;;;;;;;;7392173;19;20002;-78
2022/05/10 10:29:13;;;;;;;2.65;1.77;;;;;;;;;;7391223;19;20058;-78
2022/05/10 10:31:43;;;;;;;2.90;1.80;;;;;;;;;;7396756;19;20015;-78
2022/05/10 10:34:25;;;;;;;3.13;2.00;;;;;;;;;;7407692;19;20010;-78
2022/05/10 10:37:04;;;;;;;2.40;1.60;;;;;;;;;;7402480;19;20127;-78
2022/05/10 10:39:36;;;;;;;2.78;1.80;;;;;;;;;;7410454;19;20055;-79
2022/05/10 10:42:08;;;;;;;3.15;1.88;;;;;;;;;;7405333;19;20010;-78
2022/05/10 10:44:37;;;;;;;3.75;1.90;;;;;;;;;;7386312;19;20022;-77
2022/05/10 10:47:27;;;;;;;3.75;1.98;;;;;;;;;;7386001;19;20489;-77
2022/05/10 10:50:22;;;;;;;2.58;1.83;;;;;;;;;;7384889;19;20084;-77
2022/05/10 10:52:48;;;;;;;2.10;1.77;;;;;;;;;;7390001;19;20007;-77
2022/05/10 10:55:18;;;;;;;3.05;1.73;;;;;;;;;;7385880;19;20413;-77
2022/05/10 10:58:13;;;;;;;2.28;1.80;;;;;;;;;;7388976;19;20022;-78
2022/05/10 11:01:13;;;;;;;1.67;1.55;;;;;;;;;;7388168;19;20019;-78
2022/05/10 11:03:44;;;;;;;1.50;1.40;;;;;;;;;;7388423;19;20031;-78
2022/05/10 11:06:20;;;;;;;2.17;1.30;;;;;;;;;;7389156;19;20504;-77
2022/05/10 11:09:08;;;;;;;1.33;1.15;;;;;;;;;;7384115;19;20009;-79
2022/05/10 11:12:12;;;;;;;2.10;0.98;;;;;;;;;;7384223;19;20458;-78
2022/05/10 11:14:50;;;;;;;3.08;1.67;;;;;;;;;;7391270;19;20039;-77
2022/05/10 11:17:16;;;;;;;2.83;1.80;;;;;;;;;;7388448;19;20015;-77
2022/05/10 11:20:03;;;;;;;2.78;1.70;;;;;;;;;;7387960;19;20011;-77
2022/05/10 11:22:36;;;;;;;2.17;1.52;;;;;;;;;;7382287;19;20107;-78
2022/05/10 11:25:02;;;;;;;3.08;1.25;;;;;;;;;;7391530;19;20035;-78
2022/05/10 11:27:56;;;;;;;2.10;1.17;;;;;;;;;;7397233;19;20019;-77
2022/05/10 11:30:27;;;;;;;1.40;1.30;;;;;;;;;;7389858;19;20761;-78
2022/05/10 11:33:30;;;;;;;1.45;1.25;;;;;;;;;;7394964;19;20311;-77
2022/05/10 11:36:02;;;;;;;2.05;1.30;;;;;;;;;;7396713;19;20014;-77
2022/05/10 11:39:05;;;;;;;3.00;1.13;;;;;;;;;;7395287;19;20033;-79
2022/05/10 11:41:38;;;;;;;2.03;1.40;;;;;;;;;;7395400;19;20151;-78
2022/05/10 11:44:22;;;;;;;2.13;1.25;;;;;;;;;;7395103;19;20023;-78
2022/05/10 11:47:12;;;;;;;1.55;1.45;;;;;;;;;;7394672;19;20010;-78
2022/05/10 11:49:46;;;;;;;2.60;1.20;;;;;;;;;;7396356;19;20536;-78
2022/05/10 11:52:44;;;;;;;1.85;1.20;;;;;;;;;;7390056;19;20010;-78
2022/05/10 11:55:18;;;;;;;1.50;1.40;;;;;;;;;;7394496;19;20037;-78
2022/05/10 11:57:44;;;;;;;1.75;1.30;;;;;;;;;;7402264;19;20014;-78
2022/05/10 12:00:30;;;;;;;1.25;1.10;;;;;;;;;;7399467;19;20377;-77
2022/05/10 12:02:59;;;;;;;1.08;0.98;;;;;;;;;;7396138;19;20129;-78
2022/05/10 12:05:34;;;;;;;1.67;1.48;;;;;;;;;;7390567;19;20074;-78
2022/05/10 12:08:24;;;;;;;1.40;1.30;;;;;;;;;;7407240;19;20039;-78
2022/05/10 12:10:49;;;;;;;2.33;1.33;;;;;;;;;;7407738;19;20035;-78
2022/05/10 12:22:09;;;;;;;2.20;1.30;;;;;;;;;;7393728;19;20591;-77
2022/05/10 12:24:39;;;;;;;4.03;1.42;;;;;;;;;;7390408;19;20026;-77
2022/05/10 12:27:11;;;;;;;5.00;1.55;;;;;;;;;;7393138;19;20495;-77
2022/05/10 12:29:39;;;;;;;2.05;1.40;;;;;;;;;;7393296;19;20081;-78
2022/05/10 12:32:07;;;;;;;1.60;1.50;;;;;;;;;;7389227;19;20032;-78
2022/05/10 12:34:49;;;;;;;2.58;1.70;;;;;;;;;;7391593;19;20650;-77
2022/05/10 12:37:27;;;;;;;1.65;1.55;;;;;;;;;;7389309;19;20655;-77
2022/05/10 12:39:57;;;;;;;1.70;1.35;;;;;;;;;;7391530;19;20067;-77
2022/05/10 12:42:43;;;;;;;1.50;1.40;;;;;;;;;;7391695;19;20429;-77
2022/05/10 12:45:46;;;;;;;3.45;1.70;;;;;;;;;;7388041;19;20006;-77
2022/05/10 12:48:33;;;;;;;1.70;1.48;;;;;;;;;;7391692;19;20015;-78
2022/05/10 12:51:21;;;;;;;3.63;1.40;;;;;;;;;;7392738;19;20408;-77
2022/05/10 12:53:58;;;;;;;3.55;1.67;;;;;;;;;;7392387;19;20006;-78
2022/05/10 12:56:29;;;;;;;1.52;1.42;;;;;;;;;;7390773;19;20018;-77
2022/05/10 12:59:32;;;;;;;1.50;1.40;;;;;;;;;;7386845;19;20036;-78
2022/05/10 13:01:58;;;;;;;1.85;1.40;;;;;;;;;;7392085;19;20095;-77
2022/05/10 13:04:30;;;;;;;2.83;1.45;;;;;;;;;;7386947;19;20131;-77
2022/05/10 13:07:25;;;;;;;1.65;1.45;;;;;;;;;;7393169;19;20013;-77
2022/05/10 13:09:53;;;;;;;2.03;1.43;;;;;;;;;;7386223;19;20077;-77
2022/05/10 13:12:44;;;;;;;3.83;1.50;;;;;;;;;;7390729;19;20434;-76
2022/05/10 13:15:17;;;;;;;1.23;1.17;;;;;;;;;;7387586;19;20516;-77
2022/05/10 13:17:45;;;;;;;2.38;1.60;;;;;;;;;;7382318;19;20018;-77
2022/05/10 13:20:13;;;;;;;3.67;1.58;;;;;;;;;;7391648;19;20010;-77
2022/05/10 13:22:48;;;;;;;3.50;1.38;;;;;;;;;;7385352;19;20094;-77
2022/05/10 13:25:14;;;;;;;2.17;1.40;;;;;;;;;;7391778;19;20018;-77
2022/05/10 13:27:41;;;;;;;1.95;1.30;;;;;;;;;;7394351;19;20011;-77
2022/05/10 13:30:20;;;;;;;5.88;1.42;;;;;;;;;;7390051;19;20030;-77
2022/05/10 13:32:52;;;;;;;1.70;1.60;;;;;;;;;;7393220;19;20414;-78
2022/05/10 13:35:30;;;;;;;1.25;1.15;;;;;;;;;;7395348;19;20003;-78
2022/05/10 13:37:56;;;;;;;1.33;1.20;;;;;;;;;;7393859;19;20013;-77
2022/05/10 13:40:32;;;;;;;3.28;1.40;;;;;;;;;;7400086;19;20022;-79
2022/05/10 13:43:08;;;;;;;1.10;1.10;;;;;;;;;;7401224;19;20066;-78
2022/05/10 13:45:34;;;;;;;1.23;1.13;;;;;;;;;;7403207;19;20026;-77
2022/05/10 13:48:12;;;;;;;1.17;1.10;;;;;;;;;;7388118;19;20458;-77
2022/05/10 13:50:39;;;;;;;1.33;1.23;;;;;;;;;;7396065;19;20011;-78
2022/05/10 13:53:07;;;;;;;2.20;1.42;;;;;;;;;;7393790;19;20019;-77
2022/05/10 13:55:33;;;;;;;3.45;1.35;;;;;;;;;;7391123;19;20005;-77
2022/05/10 13:58:04;;;;;;;1.60;1.30;;;;;;;;;;7393299;19;20014;-78
2022/05/10 14:00:40;;;;;;;2.05;1.38;;;;;;;;;;7395825;19;20090;-78
2022/05/10 14:03:10;;;;;;;2.10;1.60;;;;;;;;;;7394013;19;20022;-78
2022/05/10 14:05:36;;;;;;;1.55;1.40;;;;;;;;;;7397421;19;20014;-77
2022/05/10 14:08:13;;;;;;;1.98;1.33;;;;;;;;;;7392392;19;20014;-78
2022/05/10 14:10:40;;;;;;;1.10;1.10;;;;;;;;;;7394799;19;20006;-77
2022/05/10 14:13:09;;;;;;;3.50;1.02;;;;;;;;;;7392483;19;20066;-78
2022/05/10 14:15:36;;;;;;;1.05;0.90;;;;;;;;;;7392569;19;20002;-77
2022/05/10 14:18:06;;;;;;;1.52;0.98;;;;;;;;;;7386477;19;20039;-78
2022/05/10 14:20:40;;;;;;;0.90;0.90;;;;;;;;;;7390385;19;19998;-78
2022/05/10 14:23:12;;;;;;;1.08;0.90;;;;;;;;;;7395408;19;20006;-79
2022/05/10 14:26:27;;;;;;;1.30;1.20;;;;;;;;;;7394283;19;20024;-79
2022/05/10 14:29:11;;;;;;;1.63;1.27;;;;;;;;;;7394105;19;20431;-79
2022/05/10 14:31:38;;;;;;;1.50;1.08;;;;;;;;;;7393871;19;20011;-78
2022/05/10 14:38:03;;;;;;;;;;;;;;;;;;;;;
2022/05/10 14:40:48;;;;;;;1.48;1.00;;;;;;;;;;7397200;19;20010;-81
2022/05/10 14:43:38;;;;;;;1.00;0.98;;;;;;;;;;7400299;19;20017;-79
2022/05/10 14:46:32;;;;;;;1.00;1.00;;;;;;;;;;7395780;19;20313;-80
2022/05/10 14:49:06;;;;;;;1.35;1.10;;;;;;;;;;7393908;19;20021;-79
2022/05/10 14:52:46;;;;;;;1.20;1.10;;;;;;;;;;7396958;19;20006;-79
2022/05/10 14:56:06;;;;;;;2.80;1.02;;;;;;;;;;7390941;19;20055;-80
2022/05/10 14:58:52;;;;;;;1.50;1.20;;;;;;;;;;7388828;19;20017;-79
2022/05/10 15:01:31;;;;;;;1.58;1.40;;;;;;;;;;7392473;19;20079;-79
2022/05/10 15:03:59;;;;;;;1.67;1.25;;;;;;;;;;7384157;19;20022;-79
2022/05/10 15:06:24;;;;;;;0.88;0.88;;;;;;;;;;7392512;19;20017;-79
2022/05/10 15:08:50;;;;;;;2.40;1.20;;;;;;;;;;7387725;19;20014;-79
2022/05/10 15:11:15;;;;;;;0.90;0.90;;;;;;;;;;7389117;19;20291;-79
2022/05/10 15:13:40;;;;;;;1.00;1.00;;;;;;;;;;7391332;19;20701;-79
2022/05/10 15:16:06;;;;;;;1.20;1.10;;;;;;;;;;7392724;19;20279;-79
2022/05/10 15:21:33;;;;;;;2.22;1.00;;;;;;;;;;7391101;19;20010;-79
2022/05/10 15:24:00;;;;;;;0.90;0.90;;;;;;;;;;7391470;19;20069;-80
2022/05/10 15:26:30;;;;;;;1.17;1.10;;;;;;;;;;7391978;19;20025;-80
2022/05/10 15:28:56;;;;;;;1.05;1.00;;;;;;;;;;7382043;19;20029;-79
2022/05/10 15:31:24;;;;;;;3.03;1.02;;;;;;;;;;7386835;19;20456;-79
2022/05/10 15:33:50;;;;;;;1.17;1.08;;;;;;;;;;7390981;19;20454;-79
2022/05/10 15:36:16;;;;;;;1.55;1.20;;;;;;;;;;7390238;19;20022;-78
2022/05/10 15:38:42;;;;;;;1.13;1.05;;;;;;;;;;7393456;19;20003;-78
2022/05/10 15:41:07;;;;;;;1.50;1.05;;;;;;;;;;7392328;19;20011;-80